createdAt,value
2023-03-29T00:02:04.035Z,-0.02
2023-03-29T00:04:30.918Z,0.07
2023-03-29T00:06:57.814Z,0.12
2023-03-29T00:09:26.741Z,0.18
2023-03-29T00:11:53.681Z,0.17
2023-03-29T00:14:20.284Z,0.27
2023-03-29T00:16:47.144Z,0.29
2023-03-29T00:19:13.838Z,0.31
2023-03-29T00:21:40.899Z,0.31
2023-03-29T00:24:07.650Z,0.34
2023-03-29T00:26:34.312Z,0.37
2023-03-29T00:29:00.904Z,0.43
2023-03-29T00:31:27.681Z,0.41
2023-03-29T00:33:54.340Z,0.53
2023-03-29T00:36:22.171Z,0.54
2023-03-29T00:38:49.206Z,0.60
2023-03-29T00:41:15.955Z,0.65
2023-03-29T00:43:59.854Z,0.68
2023-03-29T00:46:29.939Z,0.67
2023-03-29T00:49:08.862Z,0.79
2023-03-29T00:51:38.436Z,0.75
2023-03-29T00:54:08.665Z,0.78
2023-03-29T00:56:39.972Z,0.74
2023-03-29T00:59:13.490Z,0.72
2023-03-29T01:01:50.506Z,0.76
2023-03-29T01:04:36.544Z,0.75
2023-03-29T01:07:18.513Z,0.76
2023-03-29T01:09:53.321Z,0.80
2023-03-29T01:12:24.242Z,0.79
2023-03-29T01:15:04.825Z,0.75
2023-03-29T01:17:31.826Z,0.80
2023-03-29T01:20:10.650Z,0.85
2023-03-29T01:22:47.370Z,0.86
2023-03-29T01:25:26.264Z,0.88
2023-03-29T01:28:02.534Z,0.87
2023-03-29T01:30:37.091Z,0.91
2023-03-29T01:33:14.519Z,0.92
2023-03-29T01:35:49.458Z,0.91
2023-03-29T01:38:44.206Z,0.94
2023-03-29T01:41:12.378Z,0.99
2023-03-29T01:43:48.848Z,1.00
2023-03-29T01:46:27.591Z,0.95
2023-03-29T01:49:01.883Z,0.95
2023-03-29T01:51:39.673Z,0.90
2023-03-29T01:54:20.781Z,0.90
2023-03-29T01:56:50.488Z,0.93
2023-03-29T01:59:22.686Z,0.92
2023-03-29T02:01:54.512Z,0.91
2023-03-29T02:04:31.434Z,0.88
2023-03-29T02:07:01.934Z,0.87
2023-03-29T02:09:30.424Z,0.91
2023-03-29T02:12:00.936Z,0.86
2023-03-29T02:14:29.488Z,0.84
2023-03-29T02:16:56.170Z,0.89
2023-03-29T02:19:25.327Z,0.97
2023-03-29T02:22:07.416Z,0.93
2023-03-29T02:24:37.080Z,0.84
2023-03-29T02:27:04.822Z,0.78
2023-03-29T02:29:32.106Z,0.81
2023-03-29T02:32:23.546Z,0.81
2023-03-29T02:35:07.097Z,0.82
2023-03-29T02:37:36.363Z,0.80
2023-03-29T02:40:08.175Z,0.80
2023-03-29T02:42:35.750Z,0.79
2023-03-29T02:45:05.013Z,0.74
2023-03-29T02:47:37.211Z,0.76
2023-03-29T02:50:04.312Z,0.70
2023-03-29T02:52:35.838Z,0.62
2023-03-29T02:55:07.877Z,0.57
2023-03-29T02:57:37.145Z,0.64
2023-03-29T03:00:05.259Z,0.57
2023-03-29T03:02:31.935Z,0.51
2023-03-29T03:04:59.280Z,0.50
2023-03-29T03:07:25.875Z,0.46
2023-03-29T03:09:52.772Z,0.40
2023-03-29T03:12:19.399Z,0.36
2023-03-29T03:14:46.000Z,0.32
2023-03-29T03:17:12.598Z,0.28
2023-03-29T03:19:39.331Z,0.22
2023-03-29T03:22:07.842Z,0.23
2023-03-29T03:24:34.570Z,0.17
2023-03-29T03:27:01.271Z,0.17
2023-03-29T03:29:28.469Z,0.16
2023-03-29T03:31:55.664Z,0.15
2023-03-29T03:34:23.095Z,0.09
2023-03-29T03:36:50.694Z,0.04
2023-03-29T03:39:17.471Z,-0.02
2023-03-29T03:41:44.123Z,0.04
2023-03-29T03:44:10.814Z,0.06
2023-03-29T03:46:37.495Z,0.05
2023-03-29T03:49:04.684Z,0.10
2023-03-29T03:51:31.601Z,0.12
2023-03-29T03:53:58.166Z,0.11
2023-03-29T03:56:25.939Z,0.11
2023-03-29T03:58:52.832Z,0.13
2023-03-29T04:01:19.715Z,0.08
2023-03-29T04:03:47.921Z,0.07
2023-03-29T04:06:16.080Z,0.03
2023-03-29T04:08:42.866Z,0.02
2023-03-29T04:11:10.537Z,-0.02
2023-03-29T04:13:37.323Z,-0.02
2023-03-29T04:16:04.835Z,-0.02
2023-03-29T04:18:31.700Z,-0.03
2023-03-29T04:20:58.396Z,-0.04
2023-03-29T04:23:25.048Z,-0.07
2023-03-29T04:25:55.331Z,-0.06
2023-03-29T04:28:21.964Z,-0.09
2023-03-29T04:30:49.036Z,-0.06
2023-03-29T04:33:15.974Z,-0.09
2023-03-29T04:35:42.639Z,-0.04
2023-03-29T04:38:10.716Z,-0.07
2023-03-29T04:40:38.486Z,-0.06
2023-03-29T04:43:05.188Z,-0.06
2023-03-29T04:45:31.832Z,-0.08
2023-03-29T04:48:01.854Z,-0.03
2023-03-29T04:50:28.625Z,-0.04
2023-03-29T04:52:55.685Z,-0.01
2023-03-29T04:55:22.357Z,-0.02
2023-03-29T04:57:49.266Z,-0.02
2023-03-29T05:00:16.928Z,0.03
2023-03-29T05:02:44.642Z,0.07
2023-03-29T05:05:12.220Z,0.11
2023-03-29T05:07:40.221Z,0.15
2023-03-29T05:10:07.507Z,0.16
2023-03-29T05:12:34.106Z,0.18
2023-03-29T05:15:00.698Z,0.26
2023-03-29T05:17:27.562Z,0.36
2023-03-29T05:19:54.396Z,0.40
2023-03-29T05:22:21.866Z,0.44
2023-03-29T05:24:48.980Z,0.55
2023-03-29T05:27:17.257Z,0.67
2023-03-29T05:29:44.856Z,0.70
2023-03-29T05:32:11.903Z,0.72
2023-03-29T05:34:39.267Z,0.89
2023-03-29T05:37:06.118Z,0.97
2023-03-29T05:39:35.699Z,1.12
2023-03-29T05:42:04.624Z,1.12
2023-03-29T05:44:31.285Z,1.19
2023-03-29T05:46:58.093Z,1.10
2023-03-29T05:49:25.270Z,1.16
2023-03-29T05:51:52.431Z,1.23
2023-03-29T05:54:20.235Z,1.42
2023-03-29T05:56:47.266Z,1.44
2023-03-29T05:59:14.047Z,1.46
2023-03-29T06:01:41.851Z,1.51
2023-03-29T06:04:08.799Z,1.61
2023-03-29T06:06:36.368Z,1.66
2023-03-29T06:09:04.303Z,1.85
2023-03-29T06:11:31.614Z,1.83
2023-03-29T06:13:58.704Z,2.08
2023-03-29T06:16:25.986Z,2.20
2023-03-29T06:18:53.279Z,2.28
2023-03-29T06:21:20.264Z,2.03
2023-03-29T06:23:47.409Z,2.27
2023-03-29T06:26:14.412Z,2.26
2023-03-29T06:28:41.998Z,2.27
2023-03-29T06:31:10.306Z,2.17
2023-03-29T06:33:38.155Z,2.35
2023-03-29T06:36:05.095Z,2.21
2023-03-29T06:38:31.877Z,2.35
2023-03-29T06:41:07.151Z,2.64
2023-03-29T06:43:34.852Z,2.76
2023-03-29T06:46:02.068Z,2.82
2023-03-29T06:48:29.069Z,2.79
2023-03-29T06:50:56.129Z,2.93
2023-03-29T06:53:23.105Z,2.94
2023-03-29T06:55:51.871Z,3.11
2023-03-29T06:58:18.689Z,3.22
2023-03-29T07:00:45.885Z,3.36
2023-03-29T07:03:20.058Z,3.47
2023-03-29T07:05:47.823Z,3.17
2023-03-29T07:08:16.632Z,3.46
2023-03-29T07:10:47.519Z,3.53
2023-03-29T07:13:15.669Z,3.74
2023-03-29T07:15:43.447Z,3.98
2023-03-29T07:18:11.275Z,3.75
2023-03-29T07:20:38.973Z,3.73
2023-03-29T07:23:06.738Z,3.95
2023-03-29T07:25:34.383Z,4.31
2023-03-29T07:28:01.580Z,4.21
2023-03-29T07:30:31.999Z,4.08
2023-03-29T07:32:59.643Z,4.61
2023-03-29T07:35:27.093Z,4.46
2023-03-29T07:37:55.868Z,4.29
2023-03-29T07:40:23.956Z,4.54
2023-03-29T07:42:53.247Z,4.63
2023-03-29T07:45:26.594Z,4.78
2023-03-29T07:47:57.189Z,4.93
2023-03-29T07:50:24.948Z,5.25
2023-03-29T07:52:51.665Z,5.50
2023-03-29T07:55:18.518Z,5.51
2023-03-29T07:57:45.427Z,5.11
2023-03-29T08:00:16.868Z,5.80
2023-03-29T08:02:45.685Z,5.78
2023-03-29T08:05:14.380Z,5.65
2023-03-29T08:07:44.148Z,5.85
2023-03-29T08:10:13.899Z,6.05
2023-03-29T08:12:42.027Z,6.35
2023-03-29T08:15:11.442Z,6.38
2023-03-29T08:17:38.225Z,6.50
2023-03-29T08:20:11.552Z,6.22
2023-03-29T08:22:39.466Z,6.70
2023-03-29T08:25:13.432Z,6.42
2023-03-29T08:27:43.416Z,6.56
2023-03-29T08:30:11.504Z,7.10
2023-03-29T08:32:39.393Z,7.21
2023-03-29T08:35:09.671Z,7.10
2023-03-29T08:37:37.710Z,7.40
2023-03-29T08:40:06.613Z,7.39
2023-03-29T08:42:36.849Z,7.82
2023-03-29T08:45:26.128Z,7.43
2023-03-29T08:48:17.730Z,7.87
2023-03-29T08:50:52.077Z,8.14
2023-03-29T08:53:44.221Z,7.83
2023-03-29T08:56:16.844Z,7.88
2023-03-29T08:58:46.461Z,7.95
2023-03-29T09:01:13.547Z,8.34
2023-03-29T09:03:58.666Z,8.34
2023-03-29T09:06:25.450Z,8.86
2023-03-29T09:08:53.550Z,8.67
2023-03-29T09:11:29.178Z,9.13
2023-03-29T09:14:22.976Z,9.49
2023-03-29T09:16:58.570Z,8.61
2023-03-29T09:19:38.379Z,9.13
2023-03-29T09:22:29.423Z,9.80
2023-03-29T09:25:21.795Z,9.75
2023-03-29T09:28:07.746Z,10.01
2023-03-29T09:30:41.555Z,9.72
2023-03-29T09:33:08.791Z,9.16
2023-03-29T09:35:44.926Z,9.54
2023-03-29T09:38:14.250Z,9.68
2023-03-29T09:40:55.344Z,9.66
2023-03-29T09:43:31.564Z,9.69
2023-03-29T09:46:03.305Z,10.08
2023-03-29T09:48:35.075Z,9.67
2023-03-29T09:51:08.469Z,9.60
2023-03-29T09:53:35.211Z,10.24
2023-03-29T09:56:02.852Z,9.89
2023-03-29T09:58:31.781Z,10.06
2023-03-29T10:01:08.249Z,10.30
2023-03-29T10:03:46.033Z,10.24
2023-03-29T10:06:14.116Z,10.15
2023-03-29T10:08:57.757Z,11.01
2023-03-29T10:11:37.398Z,11.28
2023-03-29T10:14:36.278Z,11.29
2023-03-29T10:17:12.620Z,11.21
2023-03-29T10:19:49.439Z,10.46
2023-03-29T10:22:23.387Z,10.35
2023-03-29T10:24:52.240Z,10.44
2023-03-29T10:27:34.679Z,10.03
2023-03-29T10:30:12.671Z,9.82
2023-03-29T10:32:52.439Z,10.29
2023-03-29T10:35:38.846Z,10.52
2023-03-29T10:38:20.419Z,9.80
2023-03-29T10:40:55.007Z,10.22
2023-03-29T10:43:43.832Z,10.73
2023-03-29T10:46:30.928Z,11.07
2023-03-29T10:49:13.178Z,11.15
2023-03-29T10:51:46.412Z,10.61
2023-03-29T10:54:22.451Z,9.93
2023-03-29T10:57:22.273Z,10.52
2023-03-29T11:00:07.024Z,10.79
2023-03-29T11:02:56.543Z,10.70
2023-03-29T11:05:41.206Z,10.86
2023-03-29T11:08:32.242Z,10.97
2023-03-29T11:11:36.754Z,11.47
2023-03-29T11:14:32.173Z,11.60
2023-03-29T11:17:36.290Z,10.98
2023-03-29T11:20:19.887Z,10.86
2023-03-29T11:22:55.408Z,11.27
2023-03-29T11:25:39.808Z,11.21
2023-03-29T11:28:15.202Z,10.51
2023-03-29T11:31:00.687Z,10.81
2023-03-29T11:33:53.820Z,10.99
2023-03-29T11:37:04.073Z,11.06
2023-03-29T11:39:40.419Z,11.17
2023-03-29T11:42:18.514Z,11.26
2023-03-29T11:44:54.647Z,11.10
2023-03-29T11:47:25.132Z,11.08
2023-03-29T11:50:00.131Z,10.76
2023-03-29T11:52:36.723Z,10.83
2023-03-29T11:55:07.115Z,10.72
2023-03-29T11:57:41.520Z,10.83
2023-03-29T12:00:20.186Z,10.94
2023-03-29T12:03:19.011Z,10.60
2023-03-29T12:05:53.747Z,10.76
2023-03-29T12:08:35.388Z,10.33
2023-03-29T12:11:17.081Z,10.62
2023-03-29T12:13:56.704Z,11.06
2023-03-29T12:16:39.128Z,11.02
2023-03-29T12:19:20.551Z,10.93
2023-03-29T12:21:52.013Z,11.18
2023-03-29T12:24:25.654Z,11.34
2023-03-29T12:27:21.623Z,11.31
2023-03-29T12:30:16.558Z,10.83
2023-03-29T12:32:43.570Z,10.79
2023-03-29T12:35:19.688Z,10.85
2023-03-29T12:38:13.984Z,10.87
2023-03-29T12:41:00.978Z,10.72
2023-03-29T12:43:56.535Z,10.45
2023-03-29T12:46:29.235Z,10.50
2023-03-29T12:49:01.502Z,10.52
2023-03-29T12:51:35.487Z,11.09
2023-03-29T12:54:21.794Z,11.04
2023-03-29T12:56:52.258Z,11.37
2023-03-29T12:59:46.299Z,10.98
2023-03-29T13:02:14.042Z,10.48
2023-03-29T13:04:44.324Z,10.83
2023-03-29T13:07:29.484Z,10.85
2023-03-29T13:13:16.929Z,10.71
2023-03-29T13:15:48.299Z,11.12
2023-03-29T13:18:35.649Z,10.69
2023-03-29T13:21:24.024Z,10.95
2023-03-29T13:24:08.657Z,10.95
2023-03-29T13:27:00.106Z,11.20
2023-03-29T13:30:15.502Z,11.14
2023-03-29T13:33:16.744Z,10.77
2023-03-29T13:36:20.631Z,10.77
2023-03-29T13:38:50.036Z,10.48
2023-03-29T13:41:26.707Z,10.47
2023-03-29T13:43:56.442Z,10.64
2023-03-29T13:46:25.480Z,10.62
2023-03-29T13:49:17.192Z,10.42
2023-03-29T13:52:07.568Z,10.41
2023-03-29T14:00:24.646Z,10.32
2023-03-29T14:01:41.035Z,10.71
2023-03-29T14:05:25.536Z,10.63
2023-03-29T14:07:57.024Z,10.25
2023-03-29T14:10:46.240Z,10.43
2023-03-29T14:13:15.203Z,10.39
2023-03-29T14:15:53.657Z,10.19
2023-03-29T14:18:25.918Z,10.20
2023-03-29T14:20:55.001Z,9.95
2023-03-29T14:23:28.426Z,9.95
2023-03-29T14:25:55.057Z,10.04
2023-03-29T14:28:25.960Z,10.11
2023-03-29T14:30:53.656Z,10.10
2023-03-29T14:33:32.381Z,10.06
2023-03-29T14:36:03.981Z,9.94
2023-03-29T14:38:32.242Z,10.13
2023-03-29T14:41:00.284Z,10.24
2023-03-29T14:43:31.921Z,10.15
2023-03-29T14:46:01.468Z,10.24
2023-03-29T14:48:28.769Z,10.29
2023-03-29T14:50:55.785Z,10.35
2023-03-29T14:53:24.289Z,10.31
2023-03-29T14:55:55.783Z,10.23
2023-03-29T14:58:28.591Z,10.06
2023-03-29T15:00:55.338Z,10.00
2023-03-29T15:03:29.303Z,10.12
2023-03-29T15:06:04.303Z,10.12
2023-03-29T15:08:38.003Z,9.98
2023-03-29T15:11:18.158Z,9.88
2023-03-29T15:13:46.717Z,9.93
2023-03-29T15:16:16.126Z,9.96
2023-03-29T15:18:46.185Z,10.26
2023-03-29T15:21:18.036Z,9.96
2023-03-29T15:23:52.809Z,9.85
2023-03-29T15:26:29.128Z,10.32
2023-03-29T15:29:17.228Z,10.23
2023-03-29T15:31:56.246Z,10.60
2023-03-29T15:34:29.386Z,10.63
2023-03-29T15:36:59.719Z,10.42
2023-03-29T15:39:27.876Z,10.39
2023-03-29T15:41:56.895Z,10.33
2023-03-29T15:44:29.381Z,10.47
2023-03-29T15:46:57.766Z,10.39
2023-03-29T15:49:25.136Z,10.43
2023-03-29T15:51:56.043Z,10.23
2023-03-29T15:54:24.696Z,10.03
2023-03-29T15:56:55.461Z,10.12
2023-03-29T15:59:22.934Z,10.28
2023-03-29T16:01:49.884Z,10.30
2023-03-29T16:04:19.263Z,10.11
2023-03-29T16:06:48.951Z,10.12
2023-03-29T16:09:16.894Z,10.30
2023-03-29T16:11:44.522Z,10.21
2023-03-29T16:14:19.781Z,10.30
2023-03-29T16:16:47.209Z,10.11
2023-03-29T16:19:13.846Z,10.20
2023-03-29T16:21:40.760Z,10.11
2023-03-29T16:24:13.666Z,10.09
2023-03-29T16:26:40.662Z,10.02
2023-03-29T16:29:07.248Z,9.88
2023-03-29T16:31:33.877Z,9.96
2023-03-29T16:34:00.733Z,9.87
2023-03-29T16:36:30.544Z,10.04
2023-03-29T16:38:57.704Z,9.88
2023-03-29T16:41:24.659Z,9.91
2023-03-29T16:43:51.469Z,9.83
2023-03-29T16:46:18.157Z,9.84
2023-03-29T16:48:44.828Z,9.90
2023-03-29T16:51:11.476Z,9.95
2023-03-29T16:53:38.092Z,9.77
2023-03-29T16:56:05.548Z,9.69
2023-03-29T16:58:32.332Z,9.74
2023-03-29T17:01:07.573Z,9.63
2023-03-29T17:03:36.225Z,9.68
2023-03-29T17:06:03.460Z,9.65
2023-03-29T17:08:30.747Z,9.57
2023-03-29T17:10:57.403Z,9.57
2023-03-29T17:13:24.767Z,9.57
2023-03-29T17:15:52.854Z,9.54
2023-03-29T17:18:24.265Z,9.53
2023-03-29T17:20:52.773Z,9.42
2023-03-29T17:23:19.418Z,9.47
2023-03-29T17:25:46.031Z,9.42
2023-03-29T17:28:12.955Z,9.38
2023-03-29T17:30:40.173Z,9.35
2023-03-29T17:33:08.699Z,9.27
2023-03-29T17:35:35.585Z,9.30
2023-03-29T17:38:02.951Z,9.31
2023-03-29T17:40:29.620Z,9.26
2023-03-29T17:42:56.257Z,9.30
2023-03-29T17:45:24.002Z,9.24
2023-03-29T17:47:50.876Z,9.26
2023-03-29T17:50:17.829Z,9.22
2023-03-29T17:52:45.220Z,9.19
2023-03-29T17:55:13.666Z,9.19
2023-03-29T17:57:41.019Z,9.15
2023-03-29T18:00:15.981Z,9.15
2023-03-29T18:02:43.324Z,9.15
2023-03-29T18:05:10.155Z,9.14
2023-03-29T18:07:37.339Z,9.12
2023-03-29T18:10:04.715Z,9.10
2023-03-29T18:12:31.389Z,9.03
2023-03-29T18:14:58.030Z,9.01
2023-03-29T18:17:25.357Z,8.99
2023-03-29T18:19:51.994Z,9.00
2023-03-29T18:22:19.700Z,8.97
2023-03-29T18:24:46.657Z,9.01
2023-03-29T18:27:13.376Z,9.02
2023-03-29T18:29:40.108Z,9.01
2023-03-29T18:32:07.117Z,9.00
2023-03-29T18:34:34.309Z,9.02
2023-03-29T18:37:00.900Z,9.02
2023-03-29T18:39:27.615Z,9.01
2023-03-29T18:41:54.197Z,9.00
2023-03-29T18:44:21.968Z,8.99
2023-03-29T18:46:48.581Z,8.98
2023-03-29T18:49:15.133Z,9.09
2023-03-29T18:51:42.250Z,9.02
2023-03-29T18:54:09.063Z,9.07
2023-03-29T18:56:35.998Z,8.98
2023-03-29T18:59:06.206Z,9.00
2023-03-29T19:01:33.311Z,9.00
2023-03-29T19:03:59.935Z,8.99
2023-03-29T19:06:26.574Z,9.02
2023-03-29T19:08:54.063Z,9.04
2023-03-29T19:11:21.270Z,9.05
2023-03-29T19:13:50.707Z,9.02
2023-03-29T19:16:17.570Z,9.01
2023-03-29T19:18:44.215Z,8.98
2023-03-29T19:21:11.051Z,8.99
2023-03-29T19:23:38.071Z,9.01
2023-03-29T19:26:05.856Z,9.04
2023-03-29T19:28:34.081Z,9.00
2023-03-29T19:31:02.616Z,8.99
2023-03-29T19:33:29.549Z,8.94
2023-03-29T19:35:56.729Z,8.91
2023-03-29T19:38:23.536Z,8.84
2023-03-29T19:40:51.652Z,8.82
2023-03-29T19:43:18.832Z,8.78
2023-03-29T19:45:47.032Z,8.75
2023-03-29T19:48:21.921Z,8.72
2023-03-29T19:50:49.502Z,8.70
2023-03-29T19:53:16.094Z,8.66
2023-03-29T19:55:44.209Z,8.68
2023-03-29T19:58:10.840Z,8.67
2023-03-29T20:00:38.951Z,8.67
2023-03-29T20:03:09.429Z,8.64
2023-03-29T20:05:38.215Z,8.67
2023-03-29T20:08:04.965Z,8.68
2023-03-29T20:10:31.614Z,8.69
2023-03-29T20:12:58.268Z,8.69
2023-03-29T20:15:27.896Z,8.67
2023-03-29T20:17:58.462Z,8.72
2023-03-29T20:20:26.764Z,8.80
2023-03-29T20:22:58.107Z,8.76
2023-03-29T20:25:25.882Z,8.74
2023-03-29T20:27:53.338Z,8.75
2023-03-29T20:30:20.245Z,8.71
2023-03-29T20:32:46.989Z,8.71
2023-03-29T20:35:13.957Z,8.70
2023-03-29T20:37:40.777Z,8.66
2023-03-29T20:40:08.678Z,8.64
2023-03-29T20:42:36.759Z,8.63
2023-03-29T20:45:04.263Z,8.63
2023-03-29T20:47:31.148Z,8.57
2023-03-29T20:49:57.840Z,8.63
2023-03-29T20:52:24.809Z,8.60
2023-03-29T20:54:51.624Z,8.54
2023-03-29T20:57:20.882Z,8.52
2023-03-29T20:59:49.185Z,8.51
2023-03-29T21:02:20.917Z,8.53
2023-03-29T21:04:51.991Z,8.52
2023-03-29T21:07:20.077Z,8.58
2023-03-29T21:09:48.375Z,8.54
2023-03-29T21:12:14.933Z,8.52
2023-03-29T21:14:41.670Z,8.47
2023-03-29T21:17:09.482Z,8.45
2023-03-29T21:19:38.043Z,8.48
2023-03-29T21:22:05.045Z,8.43
2023-03-29T21:24:33.163Z,8.45
2023-03-29T21:27:00.593Z,8.41
2023-03-29T21:29:27.564Z,8.42
2023-03-29T21:31:54.518Z,8.41
2023-03-29T21:34:21.355Z,8.40
2023-03-29T21:36:47.953Z,8.42
2023-03-29T21:39:14.602Z,8.42
2023-03-29T21:41:41.161Z,8.40
2023-03-29T21:44:07.851Z,8.44
2023-03-29T21:46:34.520Z,8.44
2023-03-29T21:49:01.130Z,8.43
2023-03-29T21:51:27.701Z,8.40
2023-03-29T21:53:54.254Z,8.41
2023-03-29T21:56:22.489Z,8.36
2023-03-29T21:58:49.221Z,8.38
2023-03-29T22:01:16.251Z,8.34
2023-03-29T22:03:43.153Z,8.35
2023-03-29T22:06:13.439Z,8.35
2023-03-29T22:08:40.256Z,8.35
2023-03-29T22:11:09.694Z,8.33
2023-03-29T22:13:37.293Z,8.34
2023-03-29T22:16:04.450Z,8.33
2023-03-29T22:18:46.978Z,8.33
2023-03-29T22:21:18.667Z,8.36
2023-03-29T22:23:47.953Z,8.37
2023-03-29T22:26:16.196Z,8.34
2023-03-29T22:28:43.259Z,8.32
2023-03-29T22:31:13.340Z,8.31
2023-03-29T22:33:41.203Z,8.31
2023-03-29T22:36:14.010Z,8.28
2023-03-29T22:38:40.633Z,8.27
2023-03-29T22:41:07.464Z,8.27
2023-03-29T22:43:36.731Z,8.28
2023-03-29T22:46:07.631Z,8.24
2023-03-29T22:48:34.775Z,8.23
2023-03-29T22:51:01.678Z,8.24
2023-03-29T22:53:28.932Z,8.26
2023-03-29T22:55:55.653Z,8.25
2023-03-29T22:58:22.322Z,8.21
2023-03-29T23:00:49.009Z,8.20
2023-03-29T23:03:15.778Z,8.16
2023-03-29T23:05:42.634Z,8.17
2023-03-29T23:08:09.348Z,8.16
2023-03-29T23:10:35.974Z,8.11
2023-03-29T23:13:08.637Z,8.15
2023-03-29T23:15:42.834Z,8.13
2023-03-29T23:18:13.111Z,8.12
2023-03-29T23:20:40.775Z,8.11
2023-03-29T23:23:08.451Z,8.09
2023-03-29T23:25:35.291Z,8.08
2023-03-29T23:28:02.350Z,8.12
2023-03-29T23:30:29.899Z,8.12
2023-03-29T23:32:58.233Z,8.12
2023-03-29T23:35:24.978Z,8.07
2023-03-29T23:37:51.564Z,8.09
2023-03-29T23:40:18.240Z,8.11
2023-03-29T23:42:46.416Z,8.10
2023-03-29T23:45:15.732Z,8.11
2023-03-29T23:47:44.239Z,8.10
2023-03-29T23:50:13.447Z,8.11
2023-03-29T23:52:41.663Z,8.10
2023-03-29T23:55:13.496Z,8.07
2023-03-29T23:57:40.603Z,8.09
